createdAt,value
2018-06-18T00:00:00.724Z,95.40
2018-06-18T00:02:30.038Z,95.70
2018-06-18T00:04:59.372Z,95.80
2018-06-18T00:12:26.300Z,95.80
2018-06-18T00:14:55.679Z,95.80
2018-06-18T00:17:24.988Z,95.90
2018-06-18T00:19:54.275Z,95.80
2018-06-18T00:22:23.564Z,95.70
2018-06-18T00:24:52.922Z,95.80
2018-06-18T00:27:22.225Z,95.80
2018-06-18T00:29:51.574Z,95.70
2018-06-18T00:32:20.866Z,95.70
2018-06-18T00:34:50.206Z,95.80
2018-06-18T00:37:19.490Z,95.80
2018-06-18T00:39:48.853Z,95.80
2018-06-18T00:42:18.115Z,95.70
2018-06-18T00:44:47.472Z,95.90
2018-06-18T00:47:16.766Z,95.30
2018-06-18T00:49:46.134Z,95.50
2018-06-18T00:52:15.432Z,95.60
2018-06-18T00:54:44.735Z,96.00
2018-06-18T00:57:14.032Z,96.10
2018-06-18T00:59:43.348Z,96.00
2018-06-18T01:02:12.648Z,96.60
2018-06-18T01:04:41.973Z,96.60
2018-06-18T01:07:11.267Z,96.60
2018-06-18T01:09:40.595Z,96.40
2018-06-18T01:12:09.847Z,96.30
2018-06-18T01:14:39.214Z,96.20
2018-06-18T01:17:08.432Z,96.20
2018-06-18T01:19:37.675Z,96.20
2018-06-18T01:22:06.963Z,96.10
2018-06-18T01:29:38.096Z,96.20
2018-06-18T01:32:07.362Z,96.20
2018-06-18T01:34:36.701Z,96.20
2018-06-18T01:37:06.172Z,96.20
2018-06-18T01:39:35.721Z,96.10
2018-06-18T01:42:05.317Z,96.20
2018-06-18T01:44:34.727Z,96.10
2018-06-18T01:47:10.805Z,96.30
2018-06-18T01:49:40.321Z,96.50
2018-06-18T01:52:09.621Z,96.90
2018-06-18T01:54:38.874Z,97.10
2018-06-18T01:57:08.166Z,97.10
2018-06-18T01:59:37.436Z,96.90
2018-06-18T02:04:35.528Z,96.90
2018-06-18T02:09:33.653Z,96.80
2018-06-18T02:12:02.960Z,96.70
2018-06-18T02:14:32.186Z,96.70
2018-06-18T02:17:01.483Z,96.70
2018-06-18T02:19:30.721Z,96.80
2018-06-18T02:24:28.764Z,96.90
2018-06-18T02:27:03.212Z,96.80
2018-06-18T02:30:37.727Z,96.80
2018-06-18T02:33:12.470Z,97.20
2018-06-18T02:35:47.102Z,97.40
2018-06-18T02:40:51.041Z,98.10
2018-06-18T02:43:20.621Z,97.80
2018-06-18T02:45:50.260Z,97.80
2018-06-18T02:48:19.970Z,97.70
2018-06-18T02:50:49.484Z,97.50
2018-06-18T02:53:19.064Z,97.40
2018-06-18T02:55:50.251Z,97.40
2018-06-18T02:58:19.823Z,97.30
2018-06-18T03:03:18.286Z,97.20
2018-06-18T03:05:47.688Z,97.20
2018-06-18T03:08:16.961Z,97.30
2018-06-18T03:10:46.203Z,97.20
2018-06-18T03:13:15.490Z,97.20
2018-06-18T03:15:44.802Z,97.20
2018-06-18T03:18:19.422Z,97.20
2018-06-18T03:20:54.050Z,97.10
2018-06-18T03:23:28.581Z,97.10
2018-06-18T03:26:03.172Z,97.10
2018-06-18T03:28:37.719Z,97.00
2018-06-18T03:31:07.216Z,97.30
2018-06-18T03:33:36.492Z,97.00
2018-06-18T03:36:07.670Z,97.00
2018-06-18T03:38:37.199Z,97.10
2018-06-18T03:41:07.124Z,97.20
2018-06-18T03:43:40.228Z,97.40
2018-06-18T03:46:09.689Z,97.50
2018-06-18T03:48:39.151Z,97.60
2018-06-18T03:51:08.670Z,97.50
2018-06-18T03:53:38.216Z,97.60
2018-06-18T03:56:07.742Z,97.70
2018-06-18T03:58:37.287Z,97.70
2018-06-18T04:01:22.079Z,97.60
2018-06-18T04:03:56.907Z,97.50
2018-06-18T04:06:31.537Z,97.50
2018-06-18T04:09:06.297Z,97.60
2018-06-18T04:11:40.965Z,97.70
2018-06-18T04:14:10.471Z,97.90
2018-06-18T04:16:39.991Z,98.00
2018-06-18T04:19:09.475Z,98.00
2018-06-18T04:21:38.950Z,98.00
2018-06-18T04:24:08.588Z,98.00
2018-06-18T04:26:38.056Z,97.90
2018-06-18T04:29:07.616Z,98.00
2018-06-18T04:31:37.117Z,98.30
2018-06-18T04:35:13.982Z,98.20
2018-06-18T04:37:43.532Z,98.20
2018-06-18T04:40:12.796Z,98.10
2018-06-18T04:42:47.558Z,98.30
2018-06-18T04:45:22.127Z,98.20
2018-06-18T04:47:56.787Z,98.10
2018-06-18T04:50:31.448Z,98.00
2018-06-18T04:55:29.536Z,97.80
2018-06-18T04:57:58.847Z,97.60
2018-06-18T05:00:39.715Z,97.50
2018-06-18T05:05:37.918Z,97.40
2018-06-18T05:11:41.276Z,97.30
2018-06-18T05:14:10.515Z,97.30
2018-06-18T05:16:39.848Z,97.20
2018-06-18T05:19:09.092Z,97.20
2018-06-18T05:21:38.387Z,97.20
2018-06-18T05:24:07.668Z,97.10
2018-06-18T05:26:39.992Z,96.80
2018-06-18T05:29:09.244Z,96.80
2018-06-18T05:31:38.541Z,96.70
2018-06-18T05:34:08.344Z,96.60
2018-06-18T05:36:37.906Z,96.50
2018-06-18T05:39:09.115Z,96.30
2018-06-18T05:41:38.632Z,96.10
2018-06-18T05:44:08.128Z,96.30
2018-06-18T05:46:37.607Z,96.50
2018-06-18T05:49:06.939Z,96.50
2018-06-18T05:51:36.195Z,96.70
2018-06-18T05:56:34.241Z,95.50
2018-06-18T05:59:03.491Z,95.70
2018-06-18T06:01:32.784Z,95.70
2018-06-18T06:06:30.967Z,95.30
2018-06-18T06:11:29.122Z,94.40
2018-06-18T06:13:58.383Z,94.40
2018-06-18T06:16:27.681Z,94.20
2018-06-18T06:18:56.931Z,94.00
2018-06-18T06:21:26.217Z,94.10
2018-06-18T06:23:55.476Z,94.10
2018-06-18T06:26:30.172Z,94.10
2018-06-18T06:28:59.440Z,93.70
2018-06-18T06:31:29.529Z,93.30
2018-06-18T06:33:58.760Z,93.20
2018-06-18T06:36:28.491Z,93.40
2018-06-18T06:38:57.776Z,93.40
2018-06-18T06:41:28.695Z,93.00
2018-06-18T06:43:57.925Z,92.60
2018-06-18T06:46:27.261Z,92.40
2018-06-18T06:48:56.795Z,92.80
2018-06-18T06:51:26.320Z,93.00
2018-06-18T06:53:55.923Z,92.80
2018-06-18T06:56:25.568Z,92.30
2018-06-18T07:01:24.099Z,92.00
2018-06-18T07:03:53.627Z,92.20
2018-06-18T07:06:23.099Z,92.00
2018-06-18T07:08:52.603Z,92.60
2018-06-18T07:11:22.204Z,92.40
2018-06-18T07:16:20.873Z,92.80
2018-06-18T07:18:50.399Z,92.40
2018-06-18T07:28:46.790Z,92.30
2018-06-18T07:31:16.253Z,91.70
2018-06-18T07:33:45.741Z,91.50
2018-06-18T07:36:15.199Z,91.80
2018-06-18T07:38:44.481Z,91.50
2018-06-18T07:41:13.719Z,91.90
2018-06-18T07:43:43.092Z,91.60
2018-06-18T07:46:12.366Z,91.80
2018-06-18T07:48:41.679Z,91.60
2018-06-18T07:51:10.923Z,90.90
2018-06-18T07:53:40.256Z,90.40
2018-06-18T07:56:09.500Z,90.70
2018-06-18T08:01:07.604Z,90.00
2018-06-18T08:06:05.762Z,90.40
2018-06-18T08:08:35.012Z,90.10
2018-06-18T08:11:04.318Z,87.00
2018-06-18T08:13:33.582Z,85.50
2018-06-18T08:16:02.887Z,86.70
2018-06-18T08:21:00.967Z,84.00
2018-06-18T08:23:30.209Z,82.70
2018-06-18T08:25:59.488Z,82.90
2018-06-18T08:33:26.459Z,82.10
2018-06-18T08:35:56.008Z,82.90
2018-06-18T08:38:25.302Z,82.20
2018-06-18T08:40:54.619Z,82.50
2018-06-18T08:43:23.864Z,82.70
2018-06-18T08:45:53.156Z,83.20
2018-06-18T08:48:27.734Z,82.30
2018-06-18T08:51:02.332Z,82.70
2018-06-18T08:53:36.932Z,82.40
2018-06-18T08:56:11.562Z,81.60
2018-06-18T09:01:19.863Z,82.40
2018-06-18T09:03:50.116Z,82.10
2018-06-18T09:06:19.716Z,81.80
2018-06-18T09:11:18.936Z,80.30
2018-06-18T09:13:48.171Z,80.70
2018-06-18T09:16:17.529Z,80.50
2018-06-18T09:18:46.790Z,81.20
2018-06-18T09:21:16.040Z,80.70
2018-06-18T09:23:45.493Z,81.20
2018-06-18T09:26:15.003Z,81.10
2018-06-18T09:28:44.532Z,80.30
2018-06-18T09:31:14.065Z,80.00
2018-06-18T09:33:44.488Z,79.60
2018-06-18T09:36:16.942Z,78.60
2018-06-18T09:38:46.284Z,79.80
2018-06-18T09:43:44.471Z,79.90
2018-06-18T09:46:13.815Z,80.80
2018-06-18T09:48:48.472Z,81.70
2018-06-18T09:51:23.170Z,80.90
2018-06-18T09:53:57.733Z,81.20
2018-06-18T09:56:32.468Z,81.60
2018-06-18T09:59:07.055Z,80.30
2018-06-18T10:01:36.331Z,80.10
2018-06-18T10:04:05.659Z,79.80
2018-06-18T10:06:36.740Z,79.00
2018-06-18T10:11:37.072Z,77.80
2018-06-18T10:14:08.543Z,77.10
2018-06-18T10:16:37.921Z,77.50
2018-06-18T10:19:07.180Z,77.40
2018-06-18T10:21:36.417Z,76.80
2018-06-18T10:24:05.826Z,78.10
2018-06-18T10:31:32.751Z,80.10
2018-06-18T10:34:07.434Z,79.50
2018-06-18T10:39:16.092Z,78.10
2018-06-18T10:41:50.741Z,79.20
2018-06-18T10:44:20.008Z,79.60
2018-06-18T10:46:49.273Z,79.40
2018-06-18T10:49:18.532Z,79.00
2018-06-18T10:51:47.818Z,78.90
2018-06-18T10:54:17.228Z,78.20
2018-06-18T10:56:46.889Z,77.60
2018-06-18T10:59:16.421Z,77.40
2018-06-18T11:01:45.912Z,80.00
2018-06-18T11:04:20.612Z,78.50
2018-06-18T11:06:50.134Z,79.20
2018-06-18T11:09:22.392Z,79.40
2018-06-18T11:11:52.725Z,79.40
2018-06-18T11:14:22.240Z,79.40
2018-06-18T11:16:57.272Z,79.80
2018-06-18T11:19:32.006Z,81.40
2018-06-18T11:22:08.064Z,80.70
2018-06-18T11:24:42.851Z,80.20
2018-06-18T11:27:13.254Z,80.00
2018-06-18T11:29:42.856Z,79.60
2018-06-18T11:32:12.365Z,80.20
2018-06-18T11:34:41.925Z,79.00
2018-06-18T11:37:11.473Z,78.80
2018-06-18T11:39:40.835Z,80.00
2018-06-18T11:42:10.145Z,80.90
2018-06-18T11:44:39.439Z,80.70
2018-06-18T11:47:08.905Z,81.30
2018-06-18T11:49:38.375Z,81.20
2018-06-18T11:54:36.859Z,81.50
2018-06-18T11:59:40.728Z,81.40
2018-06-18T12:02:15.634Z,80.90
2018-06-18T12:07:24.679Z,80.20
2018-06-18T12:09:54.443Z,80.10
2018-06-18T12:12:23.877Z,80.60
2018-06-18T12:14:53.473Z,81.20
2018-06-18T12:17:22.951Z,80.30
2018-06-18T12:19:52.420Z,80.70
2018-06-18T12:22:21.723Z,81.10
2018-06-18T12:24:51.072Z,81.80
2018-06-18T12:27:23.583Z,80.60
2018-06-18T12:29:52.873Z,80.50
2018-06-18T12:32:22.135Z,81.10
2018-06-18T12:34:51.427Z,80.80
2018-06-18T12:37:20.690Z,80.00
2018-06-18T12:39:50.200Z,80.10
2018-06-18T12:44:53.408Z,79.00
2018-06-18T12:47:28.012Z,79.70
2018-06-18T12:52:37.020Z,77.80
2018-06-18T12:55:11.649Z,79.10
2018-06-18T12:57:40.907Z,79.60
2018-06-18T13:00:10.219Z,79.90
2018-06-18T13:02:44.962Z,79.30
2018-06-18T13:05:14.272Z,80.10
2018-06-18T13:07:43.527Z,80.30
2018-06-18T13:12:41.671Z,79.60
2018-06-18T13:15:10.939Z,79.70
2018-06-18T13:17:40.287Z,77.90
2018-06-18T13:20:09.575Z,79.00
2018-06-18T13:22:38.872Z,78.90
2018-06-18T13:25:08.135Z,79.20
2018-06-18T13:27:42.623Z,79.10
2018-06-18T13:30:11.912Z,78.10
2018-06-18T13:32:41.237Z,78.10
2018-06-18T13:35:10.491Z,79.60
2018-06-18T13:37:45.195Z,79.70
2018-06-18T13:40:19.767Z,81.00
2018-06-18T13:42:54.457Z,81.20
2018-06-18T13:45:29.119Z,80.70
2018-06-18T13:48:03.760Z,81.60
2018-06-18T13:55:30.687Z,83.80
2018-06-18T13:57:59.937Z,83.90
2018-06-18T14:00:29.214Z,85.40
2018-06-18T14:02:58.826Z,85.20
2018-06-18T14:05:28.344Z,85.50
2018-06-18T14:07:58.004Z,85.60
2018-06-18T14:10:27.676Z,85.40
2018-06-18T14:12:57.362Z,85.60
2018-06-18T14:15:26.942Z,85.40
2018-06-18T14:17:56.563Z,84.90
2018-06-18T14:20:26.843Z,84.80
2018-06-18T14:22:56.120Z,84.60
2018-06-18T14:25:25.480Z,84.40
2018-06-18T14:27:54.675Z,84.20
2018-06-18T14:30:29.375Z,84.40
2018-06-18T14:36:40.092Z,84.00
2018-06-18T14:39:14.811Z,84.10
2018-06-18T14:41:44.108Z,83.70
2018-06-18T14:44:13.394Z,83.70
2018-06-18T14:46:42.620Z,84.30
2018-06-18T14:49:11.992Z,84.50
2018-06-18T14:51:41.307Z,85.20
2018-06-18T14:54:10.670Z,84.80
2018-06-18T14:56:39.837Z,85.50
2018-06-18T14:59:14.432Z,85.40
2018-06-18T15:01:43.637Z,86.10
2018-06-18T15:04:12.892Z,86.10
2018-06-18T15:06:42.159Z,87.00
2018-06-18T15:09:12.605Z,86.80
2018-06-18T15:11:42.594Z,86.90
2018-06-18T15:14:11.955Z,87.30
2018-06-18T15:19:10.139Z,88.40
2018-06-18T15:21:46.169Z,89.00
2018-06-18T15:24:20.415Z,87.60
2018-06-18T15:26:49.900Z,89.30
2018-06-18T15:29:19.295Z,89.30
2018-06-18T15:31:48.539Z,89.80
2018-06-18T15:34:17.791Z,88.70
2018-06-18T15:36:47.073Z,89.70
2018-06-18T15:39:16.340Z,89.40
2018-06-18T15:41:45.574Z,89.30
2018-06-18T15:44:14.955Z,88.40
2018-06-18T15:46:44.116Z,88.10
2018-06-18T15:49:13.392Z,87.80
2018-06-18T15:51:42.862Z,87.40
2018-06-18T15:54:12.334Z,87.60
2018-06-18T15:56:41.835Z,88.00
2018-06-18T15:59:11.447Z,87.50
2018-06-18T16:04:09.939Z,87.30
2018-06-18T16:06:39.444Z,87.70
2018-06-18T16:09:10.071Z,88.20
2018-06-18T16:11:39.671Z,88.90
2018-06-18T16:14:10.004Z,89.10
2018-06-18T16:19:09.224Z,90.30
2018-06-18T16:21:38.755Z,90.50
2018-06-18T16:24:08.255Z,90.30
2018-06-18T16:26:37.785Z,90.40
2018-06-18T16:29:07.264Z,90.70
2018-06-18T16:31:36.846Z,90.70
2018-06-18T16:34:06.392Z,90.60
2018-06-18T16:36:35.952Z,90.50
2018-06-18T16:39:08.149Z,89.70
2018-06-18T16:44:06.694Z,89.60
2018-06-18T16:46:36.455Z,89.20
2018-06-18T16:49:05.727Z,89.30
2018-06-18T16:51:34.983Z,89.20
2018-06-18T16:54:04.294Z,88.90
2018-06-18T16:56:33.596Z,88.80
2018-06-18T16:59:02.960Z,88.60
2018-06-18T17:04:01.038Z,87.90
2018-06-18T17:06:30.356Z,87.10
2018-06-18T17:08:59.882Z,86.50
2018-06-18T17:11:29.339Z,84.80
2018-06-18T17:13:58.799Z,84.30
2018-06-18T17:16:28.095Z,83.60
2018-06-18T17:18:57.361Z,84.00
2018-06-18T17:21:26.753Z,82.90
2018-06-18T17:23:56.007Z,81.00
2018-06-18T17:26:25.281Z,81.10
2018-06-18T17:28:54.696Z,79.80
2018-06-18T17:31:24.329Z,79.20
2018-06-18T17:33:53.776Z,78.40
2018-06-18T17:38:52.368Z,79.80
2018-06-18T17:43:50.916Z,81.40
2018-06-18T17:46:20.356Z,81.80
2018-06-18T17:48:49.957Z,82.50
2018-06-18T17:51:19.211Z,83.10
2018-06-18T17:53:48.496Z,83.00
2018-06-18T17:58:46.607Z,83.80
2018-06-18T18:01:15.923Z,84.00
2018-06-18T18:03:45.152Z,83.70
2018-06-18T18:06:14.424Z,84.30
2018-06-18T18:08:43.699Z,84.70
2018-06-18T18:11:12.952Z,85.20
2018-06-18T18:13:42.473Z,85.50
2018-06-18T18:16:11.975Z,86.00
2018-06-18T18:18:41.606Z,87.00
2018-06-18T18:21:11.085Z,87.50
2018-06-18T18:23:40.701Z,87.50
2018-06-18T18:26:10.152Z,87.80
2018-06-18T18:28:39.746Z,87.40
2018-06-18T18:33:37.804Z,87.30
2018-06-18T18:36:07.102Z,87.80
2018-06-18T18:38:36.371Z,88.10
2018-06-18T18:41:05.644Z,87.40
2018-06-18T18:43:34.941Z,87.40
2018-06-18T18:46:04.232Z,87.90
2018-06-18T18:48:33.852Z,88.30
2018-06-18T18:51:03.394Z,89.40
2018-06-18T18:53:33.151Z,88.80
2018-06-18T18:56:13.958Z,89.30
2018-06-18T18:59:11.898Z,89.60
2018-06-18T19:01:41.413Z,90.10
2018-06-18T19:04:13.414Z,90.20
2018-06-18T19:06:42.659Z,90.30
2018-06-18T19:09:12.562Z,90.60
2018-06-18T19:11:41.988Z,90.90
2018-06-18T19:14:11.259Z,91.50
2018-06-18T19:16:40.537Z,91.80
2018-06-18T19:19:09.832Z,92.00
2018-06-18T19:21:39.098Z,92.20
2018-06-18T19:24:08.396Z,92.50
2018-06-18T19:26:37.657Z,92.80
2018-06-18T19:29:06.932Z,93.20
2018-06-18T19:31:36.179Z,93.40
2018-06-18T19:34:09.723Z,93.50
2018-06-18T19:36:42.968Z,93.60
2018-06-18T19:39:13.075Z,93.70
2018-06-18T19:41:42.782Z,93.90
2018-06-18T19:44:12.097Z,94.30
2018-06-18T19:50:19.359Z,95.00
2018-06-18T19:52:48.899Z,95.30
2018-06-18T19:55:20.668Z,95.50
2018-06-18T20:00:19.324Z,95.80
2018-06-18T20:02:48.919Z,95.90
2018-06-18T20:05:18.554Z,96.20
2018-06-18T20:07:55.421Z,96.40
2018-06-18T20:10:25.450Z,96.70
2018-06-18T20:12:55.282Z,96.80
2018-06-18T20:17:54.484Z,97.00
2018-06-18T20:20:23.804Z,97.10
2018-06-18T20:22:53.067Z,97.50
2018-06-18T20:25:32.238Z,97.40
2018-06-18T20:28:01.471Z,97.80
2018-06-18T20:30:30.769Z,97.80
2018-06-18T20:33:00.028Z,97.90
2018-06-18T20:35:32.407Z,97.90
2018-06-18T20:38:01.664Z,98.10
2018-06-18T20:40:30.948Z,98.30
2018-06-18T20:43:00.215Z,98.60
2018-06-18T20:45:29.869Z,98.60
2018-06-18T20:47:59.159Z,98.40
2018-06-18T20:50:28.412Z,98.50
2018-06-18T20:52:57.771Z,98.40
2018-06-18T20:55:27.149Z,98.40
2018-06-18T20:57:56.673Z,98.40
2018-06-18T21:00:26.245Z,98.40
2018-06-18T21:02:55.507Z,98.50
2018-06-18T21:05:24.760Z,98.50
2018-06-18T21:07:54.107Z,98.60
2018-06-18T21:10:23.394Z,98.60
2018-06-18T21:12:52.654Z,98.80
2018-06-18T21:15:21.956Z,98.90
2018-06-18T21:17:51.227Z,98.90
2018-06-18T21:20:20.476Z,98.90
2018-06-18T21:22:49.758Z,98.90
2018-06-18T21:25:18.976Z,99.30
2018-06-18T21:27:48.265Z,98.90
2018-06-18T21:30:17.499Z,98.90
2018-06-18T21:32:46.776Z,99.00
2018-06-18T21:35:16.012Z,99.20
2018-06-18T21:37:45.340Z,99.50
2018-06-18T21:42:43.435Z,99.60
2018-06-18T21:45:29.053Z,99.70
2018-06-18T21:47:59.159Z,99.70
2018-06-18T21:50:28.394Z,99.70
2018-06-18T21:52:57.752Z,99.80
2018-06-18T21:55:26.999Z,99.70
2018-06-18T21:57:56.262Z,99.60
2018-06-18T22:00:37.123Z,99.70
2018-06-18T22:03:06.743Z,99.70
2018-06-18T22:05:36.003Z,99.80
2018-06-18T22:10:35.296Z,99.90
2018-06-18T22:13:04.620Z,99.90
2018-06-18T22:18:02.868Z,99.90
2018-06-18T22:20:32.219Z,99.80
2018-06-18T22:25:30.361Z,99.70
2018-06-18T22:27:59.984Z,99.80
2018-06-18T22:30:29.261Z,99.90
2018-06-18T22:32:58.511Z,99.80
2018-06-18T22:35:27.773Z,99.90
2018-06-18T22:37:57.088Z,99.90
2018-06-18T22:40:26.339Z,99.90
2018-06-18T22:42:55.612Z,99.90
2018-06-18T22:45:24.922Z,99.90
2018-06-18T22:50:23.011Z,99.90
2018-06-18T22:55:21.174Z,99.90
2018-06-18T22:57:50.404Z,99.90
2018-06-18T23:02:48.454Z,99.90
2018-06-18T23:05:17.749Z,99.90
2018-06-18T23:07:47.045Z,99.90
2018-06-18T23:10:16.395Z,99.90
2018-06-18T23:12:45.846Z,99.90
2018-06-18T23:15:15.633Z,99.80
2018-06-18T23:17:44.913Z,99.90
2018-06-18T23:22:42.979Z,99.90
2018-06-18T23:25:12.297Z,99.90
2018-06-18T23:27:41.589Z,99.90
2018-06-18T23:30:10.919Z,99.90
2018-06-18T23:32:40.181Z,99.90
2018-06-18T23:37:38.299Z,99.90
2018-06-18T23:40:07.719Z,99.90
2018-06-18T23:42:37.343Z,99.90
2018-06-18T23:45:07.096Z,99.90
2018-06-18T23:47:36.891Z,99.90
2018-06-18T23:50:09.304Z,99.90
2018-06-18T23:52:38.869Z,99.90
2018-06-18T23:55:08.418Z,99.90
2018-06-18T23:57:37.931Z,99.90
